createdAt,value
2019-03-20T00:01:43.917Z,8.60
2019-03-20T00:03:44.505Z,10.33
2019-03-20T00:05:46.174Z,7.37
2019-03-20T00:07:47.855Z,11.00
2019-03-20T00:09:49.858Z,13.67
2019-03-20T00:11:51.785Z,8.60
2019-03-20T00:13:53.759Z,18.30
2019-03-20T00:15:55.733Z,8.90
2019-03-20T00:17:57.421Z,5.90
2019-03-20T00:19:59.102Z,6.90
2019-03-20T00:22:00.773Z,9.00
2019-03-20T00:24:02.485Z,18.48
2019-03-20T00:26:04.350Z,6.37
2019-03-20T00:28:06.345Z,6.00
2019-03-20T00:30:09.293Z,9.30
2019-03-20T00:32:10.968Z,9.50
2019-03-20T00:34:12.649Z,7.83
2019-03-20T00:36:14.357Z,8.65
2019-03-20T00:38:16.057Z,9.40
2019-03-20T00:40:18.043Z,3.70
2019-03-20T00:42:19.717Z,8.93
2019-03-20T00:44:21.409Z,10.03
2019-03-20T00:46:23.087Z,9.60
2019-03-20T00:48:25.117Z,9.03
2019-03-20T00:50:26.793Z,10.50
2019-03-20T00:52:28.481Z,11.22
2019-03-20T00:54:30.170Z,13.43
2019-03-20T00:56:31.853Z,9.13
2019-03-20T00:58:33.882Z,15.65
2019-03-20T01:00:35.562Z,10.82
2019-03-20T01:02:37.232Z,17.60
2019-03-20T01:04:39.237Z,26.27
2019-03-20T01:06:40.914Z,7.00
2019-03-20T01:08:42.607Z,6.60
2019-03-20T01:10:44.282Z,13.40
2019-03-20T01:12:45.970Z,7.67
2019-03-20T01:14:47.919Z,13.95
2019-03-20T01:16:49.597Z,8.58
2019-03-20T01:18:51.285Z,16.75
2019-03-20T01:20:52.952Z,7.40
2019-03-20T01:22:54.639Z,19.60
2019-03-20T01:24:56.319Z,9.48
2019-03-20T01:26:58.001Z,10.45
2019-03-20T01:28:59.695Z,12.73
2019-03-20T01:31:01.641Z,19.87
2019-03-20T01:33:04.917Z,8.03
2019-03-20T01:35:06.617Z,8.55
2019-03-20T01:37:08.542Z,14.73
2019-03-20T01:39:10.243Z,12.85
2019-03-20T01:41:11.934Z,11.07
2019-03-20T01:43:14.166Z,12.03
2019-03-20T01:45:15.905Z,5.80
2019-03-20T01:47:17.726Z,7.30
2019-03-20T01:49:19.695Z,3.95
2019-03-20T01:51:21.399Z,4.95
2019-03-20T01:53:23.090Z,7.92
2019-03-20T01:55:24.769Z,19.32
2019-03-20T01:57:26.485Z,9.88
2019-03-20T01:59:28.166Z,6.15
2019-03-20T02:01:29.841Z,12.73
2019-03-20T02:03:31.528Z,22.00
2019-03-20T02:05:36.154Z,9.13
2019-03-20T02:07:36.798Z,9.93
2019-03-20T02:09:38.738Z,15.90
2019-03-20T02:11:40.416Z,10.82
2019-03-20T02:13:42.423Z,13.28
2019-03-20T02:15:44.117Z,6.13
2019-03-20T02:17:45.795Z,6.78
2019-03-20T02:19:47.473Z,16.80
2019-03-20T02:21:49.150Z,9.70
2019-03-20T02:23:50.845Z,8.93
2019-03-20T02:25:52.529Z,7.70
2019-03-20T02:27:54.230Z,9.00
2019-03-20T02:29:55.914Z,17.82
2019-03-20T02:31:57.618Z,8.15
2019-03-20T02:33:59.398Z,10.80
2019-03-20T02:36:01.110Z,8.75
2019-03-20T02:38:02.898Z,12.70
2019-03-20T02:40:04.646Z,11.08
2019-03-20T02:42:06.332Z,9.80
2019-03-20T02:44:08.038Z,13.22
2019-03-20T02:46:09.797Z,17.48
2019-03-20T02:48:11.473Z,23.50
2019-03-20T02:50:13.268Z,8.58
2019-03-20T02:52:15.026Z,11.38
2019-03-20T02:54:16.742Z,16.73
2019-03-20T02:56:18.532Z,9.45
2019-03-20T02:58:20.336Z,13.90
2019-03-20T03:00:22.029Z,18.30
2019-03-20T03:02:23.752Z,29.77
2019-03-20T03:04:25.535Z,7.47
2019-03-20T03:06:27.322Z,10.13
2019-03-20T03:08:29.343Z,7.67
2019-03-20T03:10:31.125Z,13.03
2019-03-20T03:12:33.082Z,13.85
2019-03-20T03:14:34.766Z,20.00
2019-03-20T03:16:36.469Z,21.12
2019-03-20T03:18:38.170Z,8.25
2019-03-20T03:20:39.948Z,14.05
2019-03-20T03:22:41.628Z,19.17
2019-03-20T03:24:43.558Z,8.70
2019-03-20T03:26:45.243Z,7.58
2019-03-20T03:28:46.929Z,15.60
2019-03-20T03:30:48.641Z,7.55
2019-03-20T03:32:50.414Z,9.93
2019-03-20T03:34:52.197Z,12.95
2019-03-20T03:36:53.877Z,12.88
2019-03-20T03:38:55.573Z,7.60
2019-03-20T03:40:57.257Z,7.80
2019-03-20T03:42:58.943Z,6.50
2019-03-20T03:45:00.906Z,7.30
2019-03-20T03:47:02.581Z,11.18
2019-03-20T03:49:04.299Z,20.45
2019-03-20T03:51:06.070Z,12.85
2019-03-20T03:53:07.765Z,18.02
2019-03-20T03:55:09.881Z,8.70
2019-03-20T03:57:11.593Z,8.20
2019-03-20T03:59:13.278Z,9.78
2019-03-20T04:01:15.064Z,8.75
2019-03-20T04:03:16.746Z,17.20
2019-03-20T04:05:18.453Z,13.22
2019-03-20T04:07:23.407Z,10.15
2019-03-20T04:09:23.792Z,16.32
2019-03-20T04:11:25.482Z,15.85
2019-03-20T04:13:27.409Z,19.57
2019-03-20T04:15:29.104Z,18.80
2019-03-20T04:17:30.787Z,18.02
2019-03-20T04:19:32.465Z,22.10
2019-03-20T04:21:34.158Z,18.35
2019-03-20T04:23:35.876Z,15.00
2019-03-20T04:25:37.642Z,16.00
2019-03-20T04:27:39.355Z,17.95
2019-03-20T04:29:41.122Z,19.98
2019-03-20T04:31:43.073Z,17.10
2019-03-20T04:33:44.775Z,18.67
2019-03-20T04:35:47.134Z,21.70
2019-03-20T04:37:48.883Z,14.45
2019-03-20T04:39:50.577Z,11.70
2019-03-20T04:41:52.281Z,21.48
2019-03-20T04:43:54.427Z,18.40
2019-03-20T04:45:56.238Z,27.07
2019-03-20T04:47:57.922Z,15.25
2019-03-20T04:49:59.601Z,26.57
2019-03-20T04:52:01.298Z,29.05
2019-03-20T04:54:02.973Z,20.82
2019-03-20T04:56:04.677Z,24.05
2019-03-20T04:58:06.362Z,12.00
2019-03-20T05:00:10.285Z,15.33
2019-03-20T05:02:12.001Z,17.35
2019-03-20T05:04:13.698Z,27.80
2019-03-20T05:06:15.406Z,26.40
2019-03-20T05:08:17.077Z,24.87
2019-03-20T05:10:18.773Z,35.85
2019-03-20T05:12:20.720Z,25.43
2019-03-20T05:14:22.671Z,27.15
2019-03-20T05:16:24.356Z,37.85
2019-03-20T05:18:26.033Z,26.50
2019-03-20T05:20:27.730Z,36.15
2019-03-20T05:22:29.637Z,36.20
2019-03-20T05:24:31.318Z,42.23
2019-03-20T05:26:33.009Z,18.70
2019-03-20T05:28:34.681Z,15.95
2019-03-20T05:30:36.369Z,12.82
2019-03-20T05:32:38.077Z,30.00
2019-03-20T05:34:39.772Z,31.35
2019-03-20T05:36:41.573Z,27.65
2019-03-20T05:38:43.245Z,51.85
2019-03-20T05:40:44.926Z,38.90
2019-03-20T05:42:46.605Z,25.62
2019-03-20T05:44:48.285Z,25.82
2019-03-20T05:46:49.973Z,39.78
2019-03-20T05:48:51.649Z,42.53
2019-03-20T05:50:53.332Z,28.42
2019-03-20T05:52:55.002Z,43.00
2019-03-20T05:54:56.692Z,36.08
2019-03-20T05:56:58.670Z,38.45
2019-03-20T05:59:00.344Z,37.78
2019-03-20T06:01:02.053Z,37.88
2019-03-20T06:03:03.733Z,42.70
2019-03-20T06:05:05.501Z,36.93
2019-03-20T06:07:07.189Z,40.98
2019-03-20T06:09:08.866Z,38.25
2019-03-20T06:11:10.577Z,41.73
2019-03-20T06:13:12.278Z,49.75
2019-03-20T06:15:13.982Z,42.93
2019-03-20T06:17:15.693Z,43.05
2019-03-20T06:19:17.385Z,57.55
2019-03-20T06:21:19.069Z,43.23
2019-03-20T06:23:20.758Z,47.55
2019-03-20T06:25:22.453Z,52.15
2019-03-20T06:27:24.169Z,46.53
2019-03-20T06:29:25.869Z,47.05
2019-03-20T06:31:27.540Z,40.37
2019-03-20T06:33:29.225Z,46.55
2019-03-20T06:35:30.905Z,44.27
2019-03-20T06:37:33.002Z,39.83
2019-03-20T06:39:35.086Z,42.17
2019-03-20T06:41:36.764Z,45.70
2019-03-20T06:43:38.457Z,42.47
2019-03-20T06:45:40.124Z,34.03
2019-03-20T06:47:41.813Z,52.47
2019-03-20T06:49:43.508Z,43.43
2019-03-20T06:51:45.437Z,47.37
2019-03-20T06:53:47.437Z,37.50
2019-03-20T06:55:49.114Z,41.63
2019-03-20T06:57:51.109Z,44.63
2019-03-20T07:00:27.737Z,38.90
2019-03-20T07:02:29.503Z,49.87
2019-03-20T07:04:49.021Z,49.17
2019-03-20T07:07:08.209Z,47.43
2019-03-20T07:09:40.857Z,36.30
2019-03-20T07:11:42.542Z,42.77
2019-03-20T07:13:44.239Z,39.17
2019-03-20T07:15:45.893Z,37.30
2019-03-20T07:17:47.597Z,37.93
2019-03-20T07:19:49.262Z,47.10
2019-03-20T07:21:50.940Z,34.47
2019-03-20T07:23:52.609Z,33.53
2019-03-20T07:25:54.305Z,40.53
2019-03-20T07:27:56.065Z,31.97
2019-03-20T07:29:57.741Z,37.33
2019-03-20T07:31:59.417Z,37.97
2019-03-20T07:34:01.078Z,42.53
2019-03-20T07:36:03.086Z,41.97
2019-03-20T07:38:04.785Z,40.10
2019-03-20T07:40:07.278Z,33.73
2019-03-20T07:42:08.974Z,32.03
2019-03-20T07:44:10.737Z,41.03
2019-03-20T07:46:12.405Z,35.73
2019-03-20T07:48:21.960Z,33.80
2019-03-20T07:50:17.676Z,38.00
2019-03-20T07:52:19.359Z,36.27
2019-03-20T07:54:21.026Z,38.87
2019-03-20T07:56:22.706Z,31.73
2019-03-20T07:58:24.393Z,38.30
2019-03-20T08:00:26.061Z,32.90
2019-03-20T08:02:27.737Z,36.00
2019-03-20T08:04:29.406Z,36.90
2019-03-20T08:06:31.064Z,40.07
2019-03-20T08:08:32.754Z,25.90
2019-03-20T08:10:34.709Z,33.10
2019-03-20T08:12:36.507Z,36.27
2019-03-20T08:14:38.269Z,28.13
2019-03-20T08:16:39.957Z,30.10
2019-03-20T08:18:41.634Z,30.37
2019-03-20T08:20:43.565Z,39.00
2019-03-20T08:22:45.250Z,28.80
2019-03-20T08:24:46.923Z,33.57
2019-03-20T08:26:48.610Z,60.47
2019-03-20T08:28:50.281Z,35.90
2019-03-20T08:30:51.949Z,33.60
2019-03-20T08:32:53.644Z,26.50
2019-03-20T08:34:55.305Z,34.77
2019-03-20T08:36:57.295Z,31.73
2019-03-20T08:38:58.974Z,31.90
2019-03-20T08:41:00.909Z,23.87
2019-03-20T08:43:02.585Z,23.43
2019-03-20T08:45:04.621Z,28.20
2019-03-20T08:47:06.284Z,30.10
2019-03-20T08:49:07.985Z,32.40
2019-03-20T08:51:09.645Z,19.93
2019-03-20T08:53:11.322Z,31.87
2019-03-20T08:55:13.046Z,27.33
2019-03-20T08:57:14.726Z,24.80
2019-03-20T08:59:18.156Z,20.90
2019-03-20T09:01:28.061Z,28.27
2019-03-20T09:03:24.310Z,25.17
2019-03-20T09:05:25.974Z,33.00
2019-03-20T09:07:27.646Z,22.00
2019-03-20T09:09:29.334Z,26.97
2019-03-20T09:11:31.030Z,29.33
2019-03-20T09:13:32.710Z,22.10
2019-03-20T09:15:34.380Z,28.43
2019-03-20T09:17:36.294Z,28.23
2019-03-20T09:19:37.977Z,28.23
2019-03-20T09:21:39.658Z,20.83
2019-03-20T09:23:41.645Z,33.20
2019-03-20T09:25:43.411Z,25.83
2019-03-20T09:27:45.070Z,31.67
2019-03-20T09:29:46.737Z,26.70
2019-03-20T09:31:48.405Z,34.13
2019-03-20T09:33:50.126Z,27.83
2019-03-20T09:35:51.873Z,25.60
2019-03-20T09:37:53.807Z,22.73
2019-03-20T09:39:55.506Z,19.30
2019-03-20T09:41:57.161Z,23.00
2019-03-20T09:43:59.181Z,21.00
2019-03-20T09:46:00.846Z,26.27
2019-03-20T09:48:02.533Z,23.40
2019-03-20T09:50:04.869Z,28.30
2019-03-20T09:52:06.532Z,25.53
2019-03-20T09:54:08.211Z,27.93
2019-03-20T09:56:09.877Z,23.27
2019-03-20T09:58:12.126Z,24.93
2019-03-20T10:00:16.205Z,26.23
2019-03-20T10:02:17.872Z,18.70
2019-03-20T10:04:19.537Z,28.87
2019-03-20T10:06:21.206Z,22.83
2019-03-20T10:08:22.884Z,24.33
2019-03-20T10:10:24.584Z,23.90
2019-03-20T10:12:26.250Z,27.00
2019-03-20T10:14:28.551Z,17.90
2019-03-20T10:16:30.213Z,20.80
2019-03-20T10:18:31.877Z,20.80
2019-03-20T10:20:33.555Z,18.93
2019-03-20T10:22:35.229Z,21.00
2019-03-20T10:24:37.221Z,21.20
2019-03-20T10:26:38.890Z,25.27
2019-03-20T10:28:40.553Z,26.80
2019-03-20T10:30:42.232Z,23.20
2019-03-20T10:32:43.909Z,20.80
2019-03-20T10:34:45.613Z,26.37
2019-03-20T10:36:47.541Z,22.57
2019-03-20T10:38:49.239Z,21.07
2019-03-20T10:40:51.253Z,18.80
2019-03-20T10:42:52.921Z,20.73
2019-03-20T10:44:54.606Z,23.33
2019-03-20T10:46:56.273Z,18.93
2019-03-20T10:48:57.950Z,26.20
2019-03-20T10:50:59.617Z,25.03
2019-03-20T10:53:01.295Z,28.33
2019-03-20T10:55:03.774Z,18.00
2019-03-20T10:57:05.449Z,24.37
2019-03-20T10:59:07.132Z,26.10
2019-03-20T11:01:08.802Z,24.97
2019-03-20T11:03:10.456Z,26.03
2019-03-20T11:05:14.352Z,26.90
2019-03-20T11:07:16.013Z,28.33
2019-03-20T11:09:18.755Z,23.97
2019-03-20T11:11:26.947Z,20.70
2019-03-20T11:13:24.460Z,25.90
2019-03-20T11:15:26.269Z,27.90
2019-03-20T11:17:28.020Z,30.33
2019-03-20T11:19:29.694Z,19.10
2019-03-20T11:21:31.358Z,20.50
2019-03-20T11:23:33.025Z,29.43
2019-03-20T11:25:35.010Z,32.20
2019-03-20T11:27:36.674Z,28.73
2019-03-20T11:29:38.345Z,27.47
2019-03-20T11:31:40.004Z,22.47
2019-03-20T11:33:41.669Z,25.90
2019-03-20T11:35:43.341Z,27.17
2019-03-20T11:37:45.005Z,21.93
2019-03-20T11:39:46.677Z,31.53
2019-03-20T11:41:48.345Z,29.90
2019-03-20T11:43:50.549Z,29.73
2019-03-20T11:45:52.221Z,26.10
2019-03-20T11:47:53.898Z,23.60
2019-03-20T11:49:56.014Z,27.57
2019-03-20T11:51:57.687Z,24.90
2019-03-20T11:53:59.441Z,21.53
2019-03-20T11:56:01.127Z,23.80
2019-03-20T11:58:02.814Z,21.77
2019-03-20T12:00:05.534Z,22.53
2019-03-20T12:02:07.196Z,21.37
2019-03-20T12:04:08.861Z,21.30
2019-03-20T12:06:10.537Z,20.70
2019-03-20T12:08:12.197Z,25.97
2019-03-20T12:10:16.039Z,20.57
2019-03-20T12:12:17.706Z,25.53
2019-03-20T12:14:19.378Z,26.63
2019-03-20T12:16:21.049Z,19.03
2019-03-20T12:18:22.721Z,26.33
2019-03-20T12:20:24.414Z,22.53
2019-03-20T12:22:26.073Z,23.27
2019-03-20T12:24:28.049Z,31.00
2019-03-20T12:26:29.793Z,24.33
2019-03-20T12:28:31.500Z,21.63
2019-03-20T12:30:33.269Z,17.93
2019-03-20T12:32:34.934Z,19.80
2019-03-20T12:34:36.844Z,27.37
2019-03-20T12:36:38.512Z,20.07
2019-03-20T12:38:40.174Z,20.77
2019-03-20T12:40:41.846Z,22.43
2019-03-20T12:42:43.511Z,24.37
2019-03-20T12:44:45.175Z,26.03
2019-03-20T12:46:46.855Z,21.90
2019-03-20T12:48:48.845Z,24.00
2019-03-20T12:50:50.513Z,20.90
2019-03-20T12:52:52.180Z,21.70
2019-03-20T12:54:53.841Z,22.63
2019-03-20T12:56:55.524Z,20.43
2019-03-20T12:58:57.486Z,19.43
2019-03-20T13:00:59.153Z,19.40
2019-03-20T13:03:00.815Z,18.27
2019-03-20T13:05:03.596Z,21.57
2019-03-20T13:07:05.273Z,21.40
2019-03-20T13:09:07.354Z,23.13
2019-03-20T13:11:09.026Z,39.47
2019-03-20T13:13:10.713Z,24.40
2019-03-20T13:15:16.937Z,22.70
2019-03-20T13:17:18.609Z,22.43
2019-03-20T13:19:20.653Z,19.50
2019-03-20T13:21:22.329Z,17.97
2019-03-20T13:23:26.460Z,18.90
2019-03-20T13:25:28.121Z,22.23
2019-03-20T13:27:29.806Z,19.33
2019-03-20T13:29:31.470Z,17.37
2019-03-20T13:31:33.145Z,20.53
2019-03-20T13:33:34.815Z,18.53
2019-03-20T13:35:36.490Z,20.60
2019-03-20T13:37:38.166Z,19.63
2019-03-20T13:39:40.077Z,23.17
2019-03-20T13:41:42.013Z,18.07
2019-03-20T13:43:43.677Z,21.20
2019-03-20T13:45:45.342Z,18.50
2019-03-20T13:47:47.019Z,17.57
2019-03-20T13:49:48.685Z,19.20
2019-03-20T13:51:50.361Z,24.93
2019-03-20T13:53:52.036Z,15.63
2019-03-20T13:55:53.985Z,22.20
2019-03-20T13:57:55.658Z,18.17
2019-03-20T13:59:57.319Z,13.17
2019-03-20T14:01:58.991Z,15.97
2019-03-20T14:04:00.669Z,16.43
2019-03-20T14:06:02.332Z,12.03
2019-03-20T14:08:04.014Z,13.87
2019-03-20T14:10:05.991Z,10.57
2019-03-20T14:12:07.670Z,10.00
2019-03-20T14:14:09.329Z,11.30
2019-03-20T14:16:10.993Z,10.30
2019-03-20T14:18:12.673Z,11.97
2019-03-20T14:20:16.697Z,11.60
2019-03-20T14:22:18.372Z,12.90
2019-03-20T14:24:20.037Z,14.40
2019-03-20T14:26:21.700Z,18.53
2019-03-20T14:28:23.661Z,13.07
2019-03-20T14:30:25.343Z,9.80
2019-03-20T14:32:27.303Z,24.33
2019-03-20T14:34:28.965Z,9.03
2019-03-20T14:36:30.882Z,6.00
2019-03-20T14:38:32.557Z,11.67
2019-03-20T14:40:36.580Z,16.30
2019-03-20T14:42:37.898Z,10.60
2019-03-20T14:44:39.645Z,14.40
2019-03-20T14:46:41.304Z,11.40
2019-03-20T14:48:42.968Z,11.60
2019-03-20T14:50:45.142Z,11.33
2019-03-20T14:52:46.817Z,15.43
2019-03-20T14:54:48.482Z,10.37
2019-03-20T14:56:50.157Z,11.53
2019-03-20T14:58:52.257Z,10.80
2019-03-20T15:00:53.932Z,16.03
2019-03-20T15:02:55.610Z,10.67
2019-03-20T15:04:57.288Z,13.97
2019-03-20T15:06:58.946Z,14.33
2019-03-20T15:09:00.636Z,13.10
2019-03-20T15:11:02.304Z,21.33
2019-03-20T15:13:03.983Z,13.07
2019-03-20T15:15:10.794Z,14.57
2019-03-20T15:17:12.461Z,10.33
2019-03-20T15:19:14.143Z,17.23
2019-03-20T15:21:15.809Z,15.30
2019-03-20T15:23:17.809Z,9.80
2019-03-20T15:25:19.721Z,13.00
2019-03-20T15:27:21.385Z,13.33
2019-03-20T15:29:23.066Z,10.10
2019-03-20T15:31:24.737Z,11.73
2019-03-20T15:33:26.406Z,16.27
2019-03-20T15:35:28.080Z,15.10
2019-03-20T15:37:29.746Z,14.80
2019-03-20T15:39:31.430Z,14.20
2019-03-20T15:41:33.101Z,9.27
2019-03-20T15:43:34.777Z,17.20
2019-03-20T15:45:36.453Z,20.70
2019-03-20T15:47:38.120Z,15.53
2019-03-20T15:49:39.802Z,21.37
2019-03-20T15:51:41.470Z,16.47
2019-03-20T15:53:43.144Z,12.83
2019-03-20T15:55:44.826Z,19.37
2019-03-20T15:57:46.504Z,20.10
2019-03-20T15:59:48.533Z,13.33
2019-03-20T16:01:50.192Z,11.50
2019-03-20T16:03:51.877Z,22.67
2019-03-20T16:05:53.546Z,16.97
2019-03-20T16:07:55.217Z,15.03
2019-03-20T16:09:56.894Z,15.77
2019-03-20T16:11:58.552Z,15.60
2019-03-20T16:14:00.233Z,19.50
2019-03-20T16:16:01.911Z,15.13
2019-03-20T16:18:03.592Z,16.90
2019-03-20T16:20:05.904Z,14.17
2019-03-20T16:22:07.582Z,15.50
2019-03-20T16:24:09.252Z,15.90
2019-03-20T16:26:10.917Z,15.10
2019-03-20T16:28:12.592Z,24.50
2019-03-20T16:30:18.702Z,18.23
2019-03-20T16:32:20.369Z,19.20
2019-03-20T16:34:22.045Z,16.20
2019-03-20T16:36:23.717Z,23.23
2019-03-20T16:38:25.654Z,20.13
2019-03-20T16:40:27.361Z,16.60
2019-03-20T16:42:29.025Z,15.83
2019-03-20T16:44:30.705Z,16.53
2019-03-20T16:46:32.377Z,18.67
2019-03-20T16:48:34.045Z,20.70
2019-03-20T16:50:36.002Z,18.33
2019-03-20T16:52:37.673Z,20.50
2019-03-20T16:54:39.353Z,19.87
2019-03-20T16:56:41.022Z,21.97
2019-03-20T16:58:42.821Z,22.60
2019-03-20T17:00:44.773Z,19.10
2019-03-20T17:02:46.446Z,20.73
2019-03-20T17:04:48.120Z,20.80
2019-03-20T17:06:49.797Z,20.03
2019-03-20T17:08:51.790Z,27.87
2019-03-20T17:10:53.481Z,21.87
2019-03-20T17:12:55.405Z,20.50
2019-03-20T17:14:57.086Z,23.63
2019-03-20T17:16:59.013Z,26.40
2019-03-20T17:19:00.685Z,21.03
2019-03-20T17:21:02.675Z,26.20
2019-03-20T17:23:04.346Z,36.60
2019-03-20T17:25:06.577Z,20.50
2019-03-20T17:27:08.413Z,21.40
2019-03-20T17:29:10.102Z,23.40
2019-03-20T17:31:11.785Z,24.40
2019-03-20T17:33:13.454Z,21.83
2019-03-20T17:35:15.137Z,27.77
2019-03-20T17:37:16.803Z,20.70
2019-03-20T17:39:18.479Z,23.03
2019-03-20T17:41:20.152Z,23.00
2019-03-20T17:43:21.821Z,21.27
2019-03-20T17:45:23.535Z,27.60
2019-03-20T17:47:25.205Z,19.40
2019-03-20T17:49:26.883Z,22.10
2019-03-20T17:51:28.654Z,39.33
2019-03-20T17:53:30.325Z,18.57
2019-03-20T17:55:32.052Z,23.00
2019-03-20T17:57:33.784Z,23.50
2019-03-20T17:59:35.462Z,21.27
2019-03-20T18:01:37.145Z,21.90
2019-03-20T18:03:39.154Z,22.10
2019-03-20T18:05:40.841Z,18.63
2019-03-20T18:07:42.509Z,28.50
2019-03-20T18:09:44.517Z,22.20
2019-03-20T18:11:47.755Z,23.53
2019-03-20T18:13:49.773Z,20.00
2019-03-20T18:15:51.457Z,23.43
2019-03-20T18:17:53.125Z,21.50
2019-03-20T18:19:54.801Z,18.23
2019-03-20T18:21:56.481Z,22.60
2019-03-20T18:23:58.437Z,19.70
2019-03-20T18:26:00.390Z,17.57
2019-03-20T18:28:02.075Z,21.97
2019-03-20T18:30:06.595Z,23.27
2019-03-20T18:32:08.289Z,20.50
2019-03-20T18:34:10.217Z,20.33
2019-03-20T18:36:11.885Z,22.50
2019-03-20T18:38:13.553Z,19.43
2019-03-20T18:40:15.869Z,16.97
2019-03-20T18:42:17.548Z,20.83
2019-03-20T18:44:19.317Z,20.37
2019-03-20T18:46:20.994Z,18.60
2019-03-20T18:48:22.666Z,22.57
2019-03-20T18:50:24.333Z,17.33
2019-03-20T18:52:26.021Z,21.50
2019-03-20T18:54:28.120Z,23.97
2019-03-20T18:56:30.077Z,14.30
2019-03-20T18:58:31.748Z,19.60
2019-03-20T19:00:33.701Z,21.43
2019-03-20T19:02:35.378Z,20.93
2019-03-20T19:04:37.073Z,23.30
2019-03-20T19:06:38.837Z,18.63
2019-03-20T19:08:40.822Z,23.43
2019-03-20T19:10:42.724Z,20.43
2019-03-20T19:12:44.497Z,20.50
2019-03-20T19:14:46.273Z,18.10
2019-03-20T19:16:47.957Z,14.30
2019-03-20T19:18:49.640Z,15.20
2019-03-20T19:20:51.425Z,15.90
2019-03-20T19:22:53.114Z,25.93
2019-03-20T19:24:55.167Z,23.63
2019-03-20T19:26:56.846Z,18.17
2019-03-20T19:28:58.513Z,17.50
2019-03-20T19:31:00.257Z,21.70
2019-03-20T19:33:01.925Z,18.70
2019-03-20T19:35:04.271Z,21.47
2019-03-20T19:37:06.010Z,18.80
2019-03-20T19:39:07.676Z,22.70
2019-03-20T19:41:09.357Z,20.40
2019-03-20T19:43:11.297Z,27.03
2019-03-20T19:45:12.997Z,25.77
2019-03-20T19:47:14.686Z,17.43
2019-03-20T19:49:16.369Z,20.80
2019-03-20T19:51:18.037Z,20.10
2019-03-20T19:53:19.706Z,18.67
2019-03-20T19:55:21.381Z,18.80
2019-03-20T19:57:23.102Z,24.40
2019-03-20T19:59:24.769Z,20.27
2019-03-20T20:01:26.433Z,20.20
2019-03-20T20:03:28.173Z,19.83
2019-03-20T20:05:29.841Z,21.93
2019-03-20T20:07:31.529Z,19.67
2019-03-20T20:09:33.542Z,23.30
2019-03-20T20:11:35.231Z,30.40
2019-03-20T20:13:36.892Z,23.93
2019-03-20T20:15:38.569Z,20.77
2019-03-20T20:17:40.249Z,28.37
2019-03-20T20:19:41.917Z,31.00
2019-03-20T20:21:43.611Z,21.03
2019-03-20T20:23:45.316Z,23.43
2019-03-20T20:25:46.993Z,23.03
2019-03-20T20:27:48.688Z,23.90
2019-03-20T20:29:50.360Z,24.50
2019-03-20T20:31:52.047Z,29.67
2019-03-20T20:33:53.717Z,27.67
2019-03-20T20:35:55.368Z,26.97
2019-03-20T20:37:57.058Z,30.87
2019-03-20T20:39:58.741Z,27.83
2019-03-20T20:42:00.514Z,27.33
2019-03-20T20:44:02.190Z,27.97
2019-03-20T20:46:03.860Z,25.60
2019-03-20T20:48:05.865Z,23.50
2019-03-20T20:50:07.559Z,32.20
2019-03-20T20:52:19.038Z,22.60
2019-03-20T20:54:12.812Z,23.83
2019-03-20T20:56:14.524Z,24.43
2019-03-20T20:58:16.205Z,23.30
2019-03-20T21:00:18.657Z,22.27
2019-03-20T21:02:20.333Z,33.67
2019-03-20T21:04:22.302Z,26.83
2019-03-20T21:06:23.991Z,29.17
2019-03-20T21:08:25.657Z,28.73
2019-03-20T21:10:27.327Z,32.97
2019-03-20T21:12:30.082Z,36.60
2019-03-20T21:14:31.753Z,41.80
2019-03-20T21:16:33.948Z,27.23
2019-03-20T21:19:15.749Z,26.50
2019-03-20T21:21:17.994Z,38.13
2019-03-20T21:24:06.873Z,29.10
2019-03-20T21:26:09.085Z,25.77
2019-03-20T21:28:56.814Z,31.33
2019-03-20T21:31:26.085Z,40.10
2019-03-20T21:33:37.173Z,32.60
2019-03-20T21:36:40.733Z,28.30
2019-03-20T21:38:42.937Z,29.07
2019-03-20T21:41:39.245Z,35.20
2019-03-20T21:44:33.929Z,27.73
2019-03-20T21:47:03.053Z,28.60
2019-03-20T21:49:05.583Z,26.50
2019-03-20T21:51:16.804Z,28.63
2019-03-20T21:53:24.818Z,41.53
2019-03-20T21:56:04.249Z,30.83
2019-03-20T21:58:20.035Z,40.80
2019-03-20T22:01:13.128Z,31.07
2019-03-20T22:03:15.344Z,29.10
2019-03-20T22:05:27.046Z,40.00
2019-03-20T22:07:29.247Z,35.17
2019-03-20T22:10:15.642Z,32.77
2019-03-20T22:12:24.766Z,34.33
2019-03-20T22:14:26.969Z,37.73
2019-03-20T22:17:06.629Z,34.00
2019-03-20T22:19:43.313Z,38.17
2019-03-20T22:22:13.889Z,38.47
2019-03-20T22:24:28.193Z,40.33
2019-03-20T22:27:17.881Z,40.83
2019-03-20T22:29:38.160Z,36.50
2019-03-20T22:31:44.608Z,37.73
2019-03-20T22:34:23.102Z,39.00
2019-03-20T22:36:29.393Z,43.40
2019-03-20T22:38:55.680Z,46.23
2019-03-20T22:41:31.981Z,45.30
2019-03-20T22:43:42.857Z,42.43
2019-03-20T22:46:21.449Z,51.93
2019-03-20T22:48:53.793Z,44.90
2019-03-20T22:51:32.898Z,40.77
2019-03-20T22:54:17.410Z,44.63
2019-03-20T22:56:53.485Z,51.27
2019-03-20T22:58:55.684Z,44.33
2019-03-20T23:00:57.950Z,51.97
2019-03-20T23:03:08.212Z,43.10
2019-03-20T23:05:10.423Z,48.17
2019-03-20T23:07:12.617Z,43.50
2019-03-20T23:09:14.825Z,45.40
2019-03-20T23:11:17.030Z,45.73
2019-03-20T23:13:19.541Z,49.03
2019-03-20T23:15:21.941Z,52.20
2019-03-20T23:17:24.141Z,48.20
2019-03-20T23:19:26.357Z,44.00
2019-03-20T23:21:28.568Z,43.77
2019-03-20T23:23:31.954Z,46.60
2019-03-20T23:25:34.175Z,46.60
2019-03-20T23:27:36.385Z,50.03
2019-03-20T23:29:38.870Z,57.03
2019-03-20T23:31:41.076Z,54.83
2019-03-20T23:33:43.282Z,56.20
2019-03-20T23:35:45.765Z,51.40
2019-03-20T23:37:47.972Z,50.40
2019-03-20T23:39:50.186Z,48.87
2019-03-20T23:41:52.397Z,59.87
2019-03-20T23:43:54.869Z,56.03
2019-03-20T23:45:57.249Z,57.77
2019-03-20T23:48:17.676Z,63.87
2019-03-20T23:50:19.894Z,60.20
2019-03-20T23:52:22.101Z,74.33
2019-03-20T23:54:28.273Z,62.73
2019-03-20T23:56:31.761Z,67.03
2019-03-20T23:58:34.249Z,62.53
